Time;durP1;ratioP1;P1;durP2;ratioP2;P2;SDS_P1;SDS_P2;PMS_P1;PMS_P2;Temp;Humidity;BMP_temperature;BMP_pressure;BME280_temperature;BME280_humidity;BME280_pressure;Samples;Min_cycle;Max_cycle;Signal;HPM_P1;HPM_P2
2023/05/16 04:02:21;;;;;;;29.83;19.25;;;13.60;99.90;;;;;;5063264;23;19927;-74
2023/05/16 04:04:46;;;;;;;32.93;21.13;;;13.60;99.90;;;;;;4923111;29;20032;-74
2023/05/16 04:07:12;;;;;;;39.35;23.13;;;13.60;99.90;;;;;;4918659;29;20387;-76
2023/05/16 04:09:38;;;;;;;32.58;20.52;;;13.60;99.90;;;;;;4918031;29;20028;-75
2023/05/16 04:12:04;;;;;;;29.40;19.40;;;13.50;99.90;;;;;;4918854;29;20020;-75
2023/05/16 04:14:30;;;;;;;26.85;18.27;;;13.60;99.90;;;;;;4919737;29;20032;-75
2023/05/16 04:16:56;;;;;;;29.70;19.25;;;13.60;99.90;;;;;;4959390;23;20138;-72
2023/05/16 04:19:22;;;;;;;29.43;18.07;;;13.70;99.90;;;;;;4937683;29;20433;-73
2023/05/16 04:21:47;;;;;;;24.80;16.90;;;13.70;99.90;;;;;;4935693;29;20267;-74
2023/05/16 04:24:13;;;;;;;30.97;17.87;;;13.50;99.90;;;;;;4937404;29;20030;-73
2023/05/16 04:26:38;;;;;;;31.50;19.00;;;13.50;99.90;;;;;;4937046;29;20027;-74
2023/05/16 04:29:04;;;;;;;30.67;18.00;;;13.50;99.90;;;;;;4936048;29;20027;-74
2023/05/16 04:31:30;;;;;;;31.45;18.52;;;13.50;99.90;;;;;;4933946;29;20032;-74
2023/05/16 04:33:56;;;;;;;27.90;17.92;;;13.50;99.90;;;;;;4936188;29;20034;-73
2023/05/16 04:36:22;;;;;;;29.08;17.65;;;13.60;99.90;;;;;;4917946;29;20055;-72
2023/05/16 04:38:48;;;;;;;30.40;16.50;;;13.50;99.90;;;;;;4919730;29;20481;-72
2023/05/16 04:41:14;;;;;;;27.08;16.17;;;13.50;99.90;;;;;;4918170;29;20397;-69
2023/05/16 04:43:40;;;;;;;30.02;17.17;;;13.50;99.90;;;;;;4918782;29;20409;-68
2023/05/16 04:46:06;;;;;;;23.10;15.90;;;13.50;99.90;;;;;;4918784;29;20382;-69
2023/05/16 04:48:32;;;;;;;27.15;16.52;;;13.50;99.90;;;;;;4918539;29;20217;-70
2023/05/16 04:50:58;;;;;;;29.17;16.25;;;13.50;99.90;;;;;;4917820;29;20039;-69
2023/05/16 04:53:23;;;;;;;27.83;16.70;;;13.40;99.90;;;;;;4917596;29;20425;-69
2023/05/16 04:55:49;;;;;;;26.30;16.47;;;13.50;99.90;;;;;;4917404;29;20261;-69
2023/05/16 04:58:15;;;;;;;27.75;16.67;;;13.50;99.90;;;;;;4919035;29;20024;-70
2023/05/16 05:00:41;;;;;;;26.35;16.98;;;13.50;99.90;;;;;;4919284;29;20237;-69
2023/05/16 05:03:06;;;;;;;25.27;16.02;;;13.50;99.90;;;;;;4919296;29;20024;-69
2023/05/16 05:05:32;;;;;;;28.97;17.37;;;13.50;99.90;;;;;;4916870;29;20079;-72
2023/05/16 05:07:59;;;;;;;27.02;16.15;;;13.50;99.90;;;;;;4917217;29;20780;-69
2023/05/16 05:10:26;;;;;;;;;;;13.50;99.90;;;;;;4917720;29;20036;-71
2023/05/16 05:12:52;;;;;;;28.63;15.10;;;13.40;99.90;;;;;;4916877;29;19954;-71
2023/05/16 05:15:18;;;;;;;26.92;15.32;;;13.40;99.90;;;;;;4918101;29;20063;-70
2023/05/16 05:17:43;;;;;;;24.90;14.85;;;13.40;99.90;;;;;;4918438;29;20042;-71
2023/05/16 05:20:10;;;;;;;22.53;14.10;;;13.50;99.90;;;;;;4932418;29;20430;-70
2023/05/16 05:22:35;;;;;;;;;;;13.40;99.90;;;;;;4937683;29;20476;-71
2023/05/16 05:25:04;;;;;;;31.77;17.83;;;13.40;99.90;;;;;;4935763;29;19966;-71
2023/05/16 05:27:30;;;;;;;26.08;16.42;;;13.50;99.90;;;;;;4936896;29;20374;-71
2023/05/16 05:29:55;;;;;;;25.25;14.73;;;13.70;99.90;;;;;;4935852;29;20120;-72
2023/05/16 05:32:21;;;;;;;24.67;15.10;;;13.60;99.90;;;;;;4935780;29;20028;-71
2023/05/16 05:34:46;;;;;;;26.63;16.30;;;13.50;99.90;;;;;;4935456;29;20629;-71
2023/05/16 05:37:13;;;;;;;23.77;15.50;;;13.50;99.90;;;;;;4936680;29;20031;-71
2023/05/16 05:39:38;;;;;;;25.25;14.25;;;13.50;99.90;;;;;;4936718;29;20024;-70
2023/05/16 05:42:04;;;;;;;30.00;16.27;;;13.50;99.90;;;;;;4935306;29;20074;-71
2023/05/16 05:44:30;;;;;;;25.17;15.48;;;13.50;99.90;;;;;;4936940;29;20038;-71
2023/05/16 05:46:56;;;;;;;26.15;14.68;;;13.60;99.90;;;;;;4936582;29;20519;-72
2023/05/16 05:49:28;;;;;;;;;;;13.50;99.90;;;;;;4937556;29;20030;-71
2023/05/16 05:51:54;;;;;;;23.02;13.23;;;13.40;99.90;;;;;;4935143;29;20291;-72
2023/05/16 05:54:19;;;;;;;23.23;13.40;;;13.50;99.90;;;;;;4936879;29;20022;-72
2023/05/16 05:56:45;;;;;;;24.20;13.88;;;13.60;99.90;;;;;;4935151;29;20278;-71
2023/05/16 05:59:12;;;;;;;24.83;13.55;;;13.50;99.90;;;;;;4935587;29;20058;-71
2023/05/16 06:01:38;;;;;;;23.58;12.65;;;13.60;99.90;;;;;;4935153;29;20481;-72
2023/05/16 06:04:04;;;;;;;19.50;12.80;;;13.70;99.90;;;;;;4935211;29;20042;-70
2023/05/16 06:06:30;;;;;;;20.10;12.45;;;13.70;99.90;;;;;;4934908;29;20489;-71
2023/05/16 06:08:56;;;;;;;20.52;12.48;;;13.70;99.90;;;;;;4936470;29;20043;-71
2023/05/16 06:11:22;;;;;;;21.27;11.25;;;13.80;99.90;;;;;;4934738;29;20024;-71
2023/05/16 06:13:47;;;;;;;18.55;11.98;;;13.80;99.90;;;;;;4935056;29;20034;-71
2023/05/16 06:16:13;;;;;;;25.43;12.20;;;13.90;99.90;;;;;;4935126;29;20040;-71
2023/05/16 06:18:39;;;;;;;18.90;10.85;;;14.00;99.90;;;;;;4935336;29;20272;-70
2023/05/16 06:21:05;;;;;;;15.50;9.30;;;13.90;99.90;;;;;;4934896;29;20036;-71
2023/05/16 06:23:31;;;;;;;13.32;8.40;;;14.00;99.90;;;;;;4935599;29;20042;-72
2023/05/16 06:25:57;;;;;;;14.15;8.15;;;14.00;99.90;;;;;;4934941;29;20032;-71
2023/05/16 06:28:23;;;;;;;12.17;7.90;;;14.00;99.90;;;;;;4936261;29;20111;-71
2023/05/16 06:30:50;;;;;;;10.98;7.30;;;14.00;99.90;;;;;;4934507;29;20110;-72
2023/05/16 06:33:16;;;;;;;12.95;6.90;;;14.00;99.90;;;;;;4934762;29;20032;-72
2023/05/16 06:35:42;;;;;;;9.38;6.28;;;14.10;99.90;;;;;;4926520;29;20031;-72
2023/05/16 06:38:08;;;;;;;9.23;5.87;;;14.10;99.90;;;;;;4915808;29;20032;-72
2023/05/16 06:40:33;;;;;;;11.27;5.80;;;13.90;99.90;;;;;;4917415;29;20290;-72
2023/05/16 06:42:59;;;;;;;7.53;4.67;;;13.90;99.90;;;;;;4915838;29;20032;-72
2023/05/16 06:45:24;;;;;;;8.50;5.37;;;13.90;99.90;;;;;;4915766;29;20657;-71
2023/05/16 06:47:50;;;;;;;9.20;5.87;;;13.90;99.90;;;;;;4915767;29;20028;-72
2023/05/16 06:50:15;;;;;;;8.97;5.47;;;13.90;99.90;;;;;;4917094;29;20430;-72
2023/05/16 06:52:41;;;;;;;6.37;4.40;;;13.90;99.90;;;;;;4915498;29;20035;-72
2023/05/16 06:55:08;;;;;;;8.88;4.50;;;14.00;99.90;;;;;;4916917;29;20064;-72
2023/05/16 06:57:33;;;;;;;5.13;3.72;;;14.00;99.90;;;;;;4916020;29;20036;-71
2023/05/16 06:59:59;;;;;;;5.97;4.10;;;14.00;99.90;;;;;;4915773;29;20482;-71
2023/05/16 07:02:24;;;;;;;5.97;3.83;;;14.00;99.90;;;;;;4917189;29;20032;-71
2023/05/16 07:04:50;;;;;;;7.57;4.55;;;14.00;99.90;;;;;;4915507;29;20039;-71
2023/05/16 07:07:16;;;;;;;5.93;3.47;;;14.00;99.90;;;;;;4915448;29;20522;-71
2023/05/16 07:09:42;;;;;;;6.35;2.97;;;13.90;99.90;;;;;;4916909;29;20275;-72
2023/05/16 07:12:08;;;;;;;5.72;3.03;;;13.90;99.90;;;;;;4915603;29;20111;-71
2023/05/16 07:14:33;;;;;;;4.78;2.67;;;13.90;99.90;;;;;;4916592;29;20044;-71
2023/05/16 07:16:59;;;;;;;9.25;2.78;;;13.90;99.90;;;;;;4916680;29;20048;-71
2023/05/16 07:19:25;;;;;;;4.55;2.22;;;14.00;99.90;;;;;;4916841;29;20315;-71
2023/05/16 07:21:50;;;;;;;6.80;1.80;;;14.10;99.90;;;;;;4915144;29;20041;-71
2023/05/16 07:24:16;;;;;;;2.77;1.80;;;14.20;99.90;;;;;;4915751;29;20036;-71
2023/05/16 07:26:42;;;;;;;4.53;1.83;;;14.30;99.90;;;;;;4915669;29;20036;-72
2023/05/16 07:29:07;;;;;;;1.95;1.35;;;14.50;99.90;;;;;;4917482;29;20032;-72
2023/05/16 07:31:33;;;;;;;2.77;1.37;;;14.60;99.90;;;;;;4916628;29;20024;-72
2023/05/16 07:33:58;;;;;;;4.17;1.20;;;14.70;99.90;;;;;;4917735;29;20497;-71
2023/05/16 07:36:24;;;;;;;1.70;1.30;;;14.80;99.90;;;;;;4915829;29;20633;-72
2023/05/16 07:38:49;;;;;;;1.60;1.37;;;14.90;99.90;;;;;;4917169;29;20039;-72
2023/05/16 07:41:15;;;;;;;2.00;1.10;;;14.70;99.90;;;;;;4916653;29;20028;-71
2023/05/16 07:43:40;;;;;;;3.97;1.20;;;14.70;99.90;;;;;;4918355;29;20286;-72
2023/05/16 07:46:06;;;;;;;2.47;1.10;;;14.70;99.90;;;;;;4920086;29;20036;-71
2023/05/16 07:48:32;;;;;;;1.40;0.90;;;14.80;99.90;;;;;;4918840;29;20401;-72
2023/05/16 07:50:57;;;;;;;1.60;1.00;;;14.70;99.90;;;;;;4919598;29;20472;-72
2023/05/16 07:53:23;;;;;;;2.40;1.10;;;14.90;99.90;;;;;;4918553;29;20461;-71
2023/05/16 07:55:49;;;;;;;1.70;1.00;;;14.90;99.90;;;;;;4918595;29;20320;-72
2023/05/16 07:58:14;;;;;;;2.05;1.05;;;14.70;99.90;;;;;;4918651;29;20040;-71
2023/05/16 08:00:40;;;;;;;1.15;1.02;;;14.70;99.90;;;;;;4918679;29;20508;-71
2023/05/16 08:03:06;;;;;;;3.03;1.05;;;14.70;99.90;;;;;;4918544;29;20028;-70
2023/05/16 08:05:31;;;;;;;1.90;1.00;;;14.80;99.90;;;;;;4919535;29;20040;-71
2023/05/16 08:07:57;;;;;;;1.52;1.10;;;14.80;99.90;;;;;;4919595;29;20115;-71
2023/05/16 08:10:23;;;;;;;2.88;1.20;;;14.80;99.90;;;;;;4920098;29;20080;-72
2023/05/16 08:12:48;;;;;;;2.60;1.30;;;14.90;99.90;;;;;;4929531;29;20103;-72
2023/05/16 08:15:14;;;;;;;2.28;1.10;;;15.10;99.90;;;;;;4927977;29;20032;-72
2023/05/16 08:17:40;;;;;;;5.40;1.42;;;15.10;99.90;;;;;;4928792;29;20028;-72
2023/05/16 08:20:06;;;;;;;4.10;1.20;;;15.00;99.90;;;;;;4922250;29;20430;-72
2023/05/16 08:22:32;;;;;;;1.38;1.10;;;14.90;99.90;;;;;;4919413;29;20036;-72
2023/05/16 08:24:59;;;;;;;3.17;1.10;;;14.90;99.90;;;;;;4918271;29;20034;-72
2023/05/16 08:27:25;;;;;;;2.72;1.02;;;14.80;99.90;;;;;;4917891;29;20040;-71
2023/05/16 08:29:51;;;;;;;1.48;0.90;;;14.70;99.90;;;;;;4917975;29;20083;-71
2023/05/16 08:32:16;;;;;;;3.05;1.30;;;14.60;99.90;;;;;;4919142;29;20493;-72
2023/05/16 08:34:42;;;;;;;1.23;1.10;;;14.50;99.90;;;;;;4917806;29;20375;-70
2023/05/16 08:37:07;;;;;;;1.57;1.23;;;14.50;99.90;;;;;;4919282;29;20040;-71
2023/05/16 08:39:33;;;;;;;1.52;1.00;;;14.50;99.90;;;;;;4918111;29;20374;-71
2023/05/16 08:41:59;;;;;;;2.17;0.90;;;14.50;99.90;;;;;;4917700;29;20074;-70
2023/05/16 08:44:25;;;;;;;3.45;2.17;;;14.50;99.90;;;;;;4917566;29;20513;-71
2023/05/16 08:46:52;;;;;;;1.50;1.00;;;14.50;99.90;;;;;;4917845;29;20032;-71
2023/05/16 08:49:19;;;;;;;2.13;1.23;;;14.50;99.90;;;;;;4919399;29;20115;-72
2023/05/16 08:51:46;;;;;;;3.08;1.05;;;14.50;99.90;;;;;;4918821;29;20052;-72
2023/05/16 08:54:14;;;;;;;2.42;1.27;;;14.40;99.90;;;;;;4918444;29;20113;-71
2023/05/16 08:56:44;;;;;;;1.48;1.00;;;14.40;99.90;;;;;;4918893;29;20497;-72
2023/05/16 08:59:13;;;;;;;1.70;1.30;;;14.40;99.90;;;;;;4919332;29;20033;-72
2023/05/16 09:01:40;;;;;;;2.25;1.30;;;14.40;99.90;;;;;;4918774;29;20031;-70
2023/05/16 09:04:07;;;;;;;2.70;1.30;;;14.50;99.90;;;;;;4917469;29;20460;-71
2023/05/16 09:06:33;;;;;;;3.08;1.42;;;14.50;99.90;;;;;;4916768;29;20029;-71
2023/05/16 09:08:58;;;;;;;2.20;1.43;;;14.50;99.90;;;;;;4917656;29;20127;-72
2023/05/16 09:11:24;;;;;;;1.77;1.33;;;14.60;99.90;;;;;;4917496;29;20051;-71
2023/05/16 09:13:50;;;;;;;3.00;1.45;;;14.60;99.90;;;;;;4918945;29;20803;-72
2023/05/16 09:16:17;;;;;;;1.97;1.30;;;14.60;99.90;;;;;;4917322;29;20115;-72
2023/05/16 09:18:45;;;;;;;1.88;1.42;;;14.60;99.90;;;;;;4918564;29;20282;-72
2023/05/16 09:21:12;;;;;;;4.07;1.27;;;14.60;99.90;;;;;;4916911;29;20398;-71
2023/05/16 09:23:37;;;;;;;2.75;1.35;;;14.50;99.90;;;;;;4918628;29;20385;-71
2023/05/16 09:26:09;;;;;;;2.00;1.33;;;14.40;99.90;;;;;;4917475;29;20119;-72
2023/05/16 09:28:37;;;;;;;1.55;1.20;;;14.50;99.90;;;;;;4918324;29;20028;-71
2023/05/16 09:31:03;;;;;;;1.83;1.20;;;14.60;99.90;;;;;;4917496;29;20048;-70
2023/05/16 09:33:29;;;;;;;2.45;1.17;;;14.50;99.90;;;;;;4917284;29;20111;-73
2023/05/16 09:35:59;;;;;;;3.17;1.30;;;14.50;99.90;;;;;;4917588;29;20031;-71
2023/05/16 09:38:27;;;;;;;4.03;1.73;;;14.40;99.90;;;;;;4918284;29;20036;-71
2023/05/16 09:40:54;;;;;;;2.15;1.40;;;14.40;99.90;;;;;;4918395;29;20024;-71
2023/05/16 09:43:24;;;;;;;2.53;1.27;;;14.40;99.90;;;;;;4917993;29;20032;-71
2023/05/16 09:45:50;;;;;;;2.25;1.23;;;14.40;99.90;;;;;;4916767;29;20036;-71
2023/05/16 09:48:16;;;;;;;1.13;0.82;;;14.40;99.90;;;;;;4916910;29;20032;-71
2023/05/16 09:50:49;;;;;;;1.60;1.17;;;14.40;99.90;;;;;;4916422;29;20112;-71
2023/05/16 09:53:15;;;;;;;3.45;1.00;;;14.50;99.90;;;;;;4916245;29;20031;-71
2023/05/16 09:55:41;;;;;;;1.97;0.67;;;14.60;99.90;;;;;;4916465;29;20191;-71
2023/05/16 09:58:06;;;;;;;5.72;1.25;;;14.80;99.90;;;;;;4918007;29;20334;-71
2023/05/16 10:00:33;;;;;;;1.30;0.80;;;15.30;99.90;;;;;;4918237;29;20036;-71
2023/05/16 10:03:00;;;;;;;4.85;0.95;;;15.70;99.90;;;;;;4918483;29;20653;-71
2023/05/16 10:05:26;;;;;;;1.38;0.80;;;16.50;99.90;;;;;;4916285;29;20031;-71
2023/05/16 10:07:55;;;;;;;1.48;1.10;;;17.00;99.90;;;;;;4916077;29;20171;-72
2023/05/16 10:10:21;;;;;;;2.65;1.00;;;17.20;99.90;;;;;;4916167;29;20062;-71
2023/05/16 10:12:49;;;;;;;1.13;0.75;;;17.30;99.90;;;;;;4915980;29;20086;-72
2023/05/16 10:15:16;;;;;;;1.30;0.90;;;17.40;99.90;;;;;;4917162;29;20167;-72
2023/05/16 10:17:44;;;;;;;2.78;0.70;;;17.50;99.90;;;;;;4917928;29;20051;-74
2023/05/16 10:20:11;;;;;;;0.70;0.60;;;17.40;99.90;;;;;;4917267;29;20481;-73
2023/05/16 10:22:42;;;;;;;0.80;0.80;;;17.30;99.90;;;;;;4915743;29;20039;-73
2023/05/16 10:25:16;;;;;;;2.42;1.23;;;17.10;99.90;;;;;;4916266;29;20039;-72
2023/05/16 10:27:42;;;;;;;1.60;0.75;;;16.80;99.90;;;;;;4916323;29;20036;-73
2023/05/16 10:30:09;;;;;;;1.17;0.68;;;16.50;99.90;;;;;;4916240;29;20029;-72
2023/05/16 10:32:36;;;;;;;0.90;0.65;;;16.10;99.90;;;;;;4917486;29;20084;-73
2023/05/16 10:35:03;;;;;;;1.48;0.80;;;16.00;99.90;;;;;;4915690;29;20032;-74
2023/05/16 10:37:30;;;;;;;4.10;0.80;;;15.90;99.90;;;;;;4915832;29;20039;-73
2023/05/16 10:39:57;;;;;;;1.20;0.60;;;16.00;99.90;;;;;;4917114;29;20066;-73
2023/05/16 10:42:22;;;;;;;2.38;0.80;;;16.00;99.90;;;;;;4915933;29;20039;-74
2023/05/16 10:44:48;;;;;;;1.00;0.70;;;15.80;99.90;;;;;;4916092;29;20028;-73
2023/05/16 10:47:18;;;;;;;1.50;0.60;;;15.70;99.90;;;;;;4916299;29;20028;-73
2023/05/16 10:49:44;;;;;;;1.67;0.50;;;15.70;99.90;;;;;;4917292;29;20275;-73
2023/05/16 10:52:12;;;;;;;0.85;0.50;;;15.70;99.90;;;;;;4916123;29;20025;-73
2023/05/16 10:54:42;;;;;;;1.20;0.50;;;15.60;99.90;;;;;;4917801;29;20020;-73
2023/05/16 10:57:16;;;;;;;5.68;1.15;;;15.40;99.90;;;;;;4917406;29;20035;-73
2023/05/16 10:59:44;;;;;;;1.45;0.57;;;15.30;99.90;;;;;;4917826;29;20449;-73
2023/05/16 11:02:23;;;;;;;1.05;0.40;;;15.30;99.90;;;;;;4916070;29;20032;-73
2023/05/16 11:04:50;;;;;;;2.47;1.15;;;14.90;99.90;;;;;;4917227;29;20024;-73
2023/05/16 11:07:18;;;;;;;0.90;0.40;;;14.80;99.90;;;;;;4915772;29;20024;-72
2023/05/16 11:09:45;;;;;;;1.55;0.52;;;14.60;99.90;;;;;;4917457;29;20434;-73
2023/05/16 11:12:11;;;;;;;;;;;14.70;99.90;;;;;;4916984;29;20052;-73
2023/05/16 11:14:40;;;;;;;0.63;0.45;;;14.60;99.90;;;;;;4917399;29;20408;-73
2023/05/16 11:17:22;;;;;;;2.10;0.60;;;14.60;99.90;;;;;;4916258;29;20043;-74
2023/05/16 11:20:02;;;;;;;1.75;0.85;;;14.60;99.90;;;;;;4921126;29;20485;-74
2023/05/16 11:22:28;;;;;;;2.47;0.80;;;14.40;99.90;;;;;;4919724;29;20062;-73
2023/05/16 11:25:14;;;;;;;1.92;0.45;;;14.30;99.90;;;;;;4920706;29;20039;-73
2023/05/16 11:27:44;;;;;;;4.90;0.73;;;14.30;99.90;;;;;;4919416;29;20064;-73
2023/05/16 11:30:18;;;;;;;1.33;0.80;;;14.30;99.90;;;;;;4920561;29;20024;-73
2023/05/16 11:32:45;;;;;;;0.95;0.75;;;14.30;99.90;;;;;;4921634;29;20503;-74
2023/05/16 11:35:15;;;;;;;1.42;0.60;;;14.30;99.90;;;;;;4939600;29;20330;-73
2023/05/16 11:37:42;;;;;;;2.65;0.70;;;14.70;99.90;;;;;;4938018;29;20027;-70
2023/05/16 11:40:10;;;;;;;1.58;0.70;;;15.10;99.90;;;;;;4939409;29;20083;-73
2023/05/16 11:42:36;;;;;;;0.93;0.70;;;15.50;99.90;;;;;;4937935;29;20476;-74
2023/05/16 11:45:07;;;;;;;1.00;0.70;;;15.90;99.90;;;;;;4939374;29;20032;-74
2023/05/16 11:47:34;;;;;;;3.50;1.25;;;16.10;99.90;;;;;;4939158;29;20058;-75
2023/05/16 11:50:05;;;;;;;3.67;1.95;;;16.30;99.90;;;;;;4938267;29;20035;-74
2023/05/16 11:52:31;;;;;;;2.97;1.40;;;16.00;99.90;;;;;;4938889;29;20020;-74
2023/05/16 11:55:00;;;;;;;4.95;1.85;;;15.90;99.90;;;;;;4938736;29;20524;-74
2023/05/16 11:57:26;;;;;;;2.85;1.42;;;15.90;99.90;;;;;;4938079;29;20028;-75
2023/05/16 11:59:53;;;;;;;2.22;1.23;;;15.90;99.90;;;;;;4937920;29;20031;-75
2023/05/16 12:02:19;;;;;;;2.22;0.85;;;15.90;99.90;;;;;;4938624;29;20107;-74
2023/05/16 12:04:49;;;;;;;5.32;0.82;;;15.80;99.90;;;;;;4937584;29;20027;-75
2023/05/16 12:07:14;;;;;;;2.85;1.02;;;15.60;99.90;;;;;;4937046;29;20378;-74
2023/05/16 12:09:40;;;;;;;1.83;0.93;;;15.60;99.90;;;;;;4938667;29;20091;-74
2023/05/16 12:12:06;;;;;;;6.10;4.20;;;15.40;99.90;;;;;;4937240;29;20028;-74
2023/05/16 12:14:32;;;;;;;1.17;0.82;;;15.40;99.90;;;;;;4937807;29;20029;-74
2023/05/16 12:16:58;;;;;;;1.02;0.70;;;15.20;99.90;;;;;;4938408;29;20134;-74
2023/05/16 12:19:24;;;;;;;2.88;1.05;;;15.10;99.90;;;;;;4938548;29;20063;-75
2023/05/16 12:21:53;;;;;;;2.42;1.08;;;15.00;99.90;;;;;;4938475;29;20035;-73
2023/05/16 12:24:19;;;;;;;1.63;0.85;;;14.80;99.90;;;;;;4936950;29;20031;-74
2023/05/16 12:26:45;;;;;;;4.30;0.90;;;14.70;99.90;;;;;;4938117;29;20157;-75
2023/05/16 12:29:12;;;;;;;5.20;1.27;;;14.60;99.90;;;;;;4935654;29;20041;-74
2023/05/16 12:31:39;;;;;;;3.70;1.00;;;14.70;99.90;;;;;;4936044;29;20115;-75
2023/05/16 12:34:13;;;;;;;2.30;1.00;;;14.80;99.90;;;;;;4938033;29;20024;-75
2023/05/16 12:36:39;;;;;;;8.93;1.40;;;14.90;99.90;;;;;;4937845;29;20067;-76
2023/05/16 12:39:04;;;;;;;3.70;1.10;;;15.00;99.90;;;;;;4940069;29;20028;-75
2023/05/16 12:41:31;;;;;;;2.87;1.00;;;15.10;99.90;;;;;;4940049;29;20350;-75
2023/05/16 12:44:10;;;;;;;2.90;1.02;;;15.30;99.90;;;;;;4941835;29;20020;-66
2023/05/16 12:46:40;;;;;;;5.28;1.20;;;15.50;99.90;;;;;;4938281;29;20370;-66
2023/05/16 12:49:07;;;;;;;4.65;1.15;;;15.50;99.90;;;;;;4938541;29;20096;-66
2023/05/16 12:51:32;;;;;;;2.63;1.27;;;15.30;99.90;;;;;;4940253;29;20032;-66
2023/05/16 12:54:10;;;;;;;4.73;1.50;;;15.20;99.90;;;;;;4939805;29;20034;-66
2023/05/16 12:56:40;;;;;;;4.90;1.45;;;15.20;99.90;;;;;;4938861;29;20465;-74
2023/05/16 12:59:06;;;;;;;7.32;1.45;;;15.00;99.90;;;;;;4935882;29;20027;-75
2023/05/16 13:01:33;;;;;;;5.43;1.65;;;14.90;99.90;;;;;;4936573;29;20036;-74
2023/05/16 13:03:59;;;;;;;4.28;1.33;;;14.90;99.90;;;;;;4930521;29;20035;-74
2023/05/16 13:06:25;;;;;;;5.18;1.20;;;15.00;99.90;;;;;;4929127;29;20118;-75
2023/05/16 13:08:51;;;;;;;4.97;1.48;;;15.00;99.90;;;;;;4937310;29;20036;-75
2023/05/16 13:11:17;;;;;;;6.03;1.80;;;15.20;99.90;;;;;;4936054;29;20023;-75
2023/05/16 13:13:43;;;;;;;5.80;1.70;;;15.40;99.90;;;;;;4937589;29;20038;-75
2023/05/16 13:16:09;;;;;;;5.60;1.60;;;15.60;99.90;;;;;;4937222;29;20106;-75
2023/05/16 13:18:35;;;;;;;7.55;1.88;;;15.50;99.90;;;;;;4935493;29;20036;-75
2023/05/16 13:21:02;;;;;;;4.28;1.40;;;15.60;99.90;;;;;;4936959;29;20020;-74
2023/05/16 13:23:28;;;;;;;8.77;1.77;;;15.70;99.90;;;;;;4937558;29;20115;-75
2023/05/16 13:25:54;;;;;;;8.70;2.90;;;15.70;99.90;;;;;;4935859;29;20445;-75
2023/05/16 13:28:19;;;;;;;5.68;1.70;;;15.60;99.90;;;;;;4937796;29;20283;-74
2023/05/16 13:30:45;;;;;;;9.48;2.13;;;15.60;99.90;;;;;;4937275;29;20115;-74
2023/05/16 13:33:11;;;;;;;8.27;1.60;;;15.50;99.90;;;;;;4936894;29;20481;-74
2023/05/16 13:35:37;;;;;;;8.45;1.98;;;15.40;99.90;;;;;;4935569;29;20374;-74
2023/05/16 13:38:02;;;;;;;7.78;1.67;;;15.40;99.90;;;;;;4935518;29;20028;-75
2023/05/16 13:40:28;;;;;;;4.53;1.33;;;15.30;99.90;;;;;;4936697;29;20392;-74
2023/05/16 13:42:54;;;;;;;11.93;2.08;;;15.30;99.90;;;;;;4935585;29;20176;-72
2023/05/16 13:45:19;;;;;;;4.00;1.40;;;15.30;99.90;;;;;;4935629;29;20070;-74
2023/05/16 13:47:45;;;;;;;8.13;1.60;;;15.30;99.90;;;;;;4936635;29;20388;-74
2023/05/16 13:50:11;;;;;;;7.47;1.77;;;15.30;99.90;;;;;;4935528;29;20291;-73
2023/05/16 13:52:37;;;;;;;7.72;1.88;;;15.30;99.90;;;;;;4936628;29;20047;-73
2023/05/16 13:55:02;;;;;;;6.25;1.45;;;15.40;99.80;;;;;;4936637;29;20058;-74
2023/05/16 13:57:28;;;;;;;8.73;2.10;;;15.50;99.50;;;;;;4936618;29;20051;-73
2023/05/16 13:59:54;;;;;;;5.45;1.25;;;15.50;99.40;;;;;;4935475;29;20027;-75
2023/05/16 14:02:19;;;;;;;8.13;2.05;;;15.50;99.00;;;;;;4935813;29;20027;-74
2023/05/16 14:04:45;;;;;;;5.50;1.38;;;15.50;98.90;;;;;;4936081;29;20023;-75
2023/05/16 14:07:11;;;;;;;4.68;1.77;;;15.70;98.80;;;;;;4935239;29;20111;-74
2023/05/16 14:09:38;;;;;;;9.47;2.00;;;15.80;98.30;;;;;;4935469;29;20055;-75
2023/05/16 14:12:07;;;;;;;7.10;1.33;;;15.80;98.10;;;;;;4935890;29;20067;-74
2023/05/16 14:14:36;;;;;;;6.85;1.70;;;15.80;98.20;;;;;;4937691;29;20027;-73
2023/05/16 14:17:02;;;;;;;5.97;1.60;;;15.80;97.90;;;;;;4936459;29;20122;-74
2023/05/16 14:19:29;;;;;;;4.95;1.60;;;15.80;98.20;;;;;;4936082;29;20068;-75
2023/05/16 14:21:54;;;;;;;8.23;1.50;;;15.70;98.20;;;;;;4936858;29;20464;-75
2023/05/16 14:24:20;;;;;;;5.05;1.40;;;15.70;98.50;;;;;;4935641;29;20147;-74
2023/05/16 14:26:46;;;;;;;6.93;1.52;;;15.80;98.10;;;;;;4935765;29;20111;-74
2023/05/16 14:29:12;;;;;;;7.13;1.60;;;16.10;97.80;;;;;;4936865;29;20032;-74
2023/05/16 14:31:38;;;;;;;6.10;1.40;;;16.20;97.70;;;;;;4936588;29;20389;-75
2023/05/16 14:34:03;;;;;;;8.27;1.85;;;16.40;97.40;;;;;;4929415;29;20386;-75
2023/05/16 14:36:30;;;;;;;6.27;1.73;;;16.30;96.40;;;;;;4915816;29;20070;-74
2023/05/16 14:38:56;;;;;;;6.13;1.55;;;16.30;96.50;;;;;;4916614;29;20040;-75
2023/05/16 14:41:22;;;;;;;8.45;1.70;;;16.50;96.30;;;;;;4917724;29;20557;-75
2023/05/16 14:43:48;;;;;;;4.70;1.33;;;16.60;95.90;;;;;;4917418;29;20070;-74
2023/05/16 14:46:13;;;;;;;5.78;1.92;;;16.60;94.90;;;;;;4916031;29;20039;-73
2023/05/16 14:48:39;;;;;;;6.35;1.13;;;16.50;95.10;;;;;;4915710;29;20056;-73
2023/05/16 14:51:05;;;;;;;6.05;1.25;;;16.50;95.20;;;;;;4915664;29;20029;-72
2023/05/16 14:53:31;;;;;;;8.52;2.67;;;16.50;94.70;;;;;;4918498;29;20040;-73
2023/05/16 14:55:57;;;;;;;9.80;1.83;;;16.50;94.50;;;;;;4923347;29;20177;-74
2023/05/16 14:58:22;;;;;;;;;;;16.50;94.30;;;;;;4925930;29;20268;-73
2023/05/16 15:00:48;;;;;;;6.05;1.15;;;16.40;94.60;;;;;;4920011;29;19907;-74
2023/05/16 15:03:18;;;;;;;4.63;1.23;;;16.40;93.80;;;;;;4920044;29;20549;-73
2023/05/16 15:05:44;;;;;;;8.18;1.42;;;16.50;93.80;;;;;;4921583;29;20081;-74
2023/05/16 15:08:10;;;;;;;3.97;1.30;;;16.20;93.20;;;;;;4920136;29;20171;-73
2023/05/16 15:10:35;;;;;;;5.35;1.30;;;16.00;93.90;;;;;;4932066;29;20345;-71
2023/05/16 15:13:01;;;;;;;6.30;1.50;;;15.90;93.10;;;;;;4939580;29;20038;-72
2023/05/16 15:15:27;;;;;;;4.95;1.25;;;15.90;93.50;;;;;;4939256;29;20044;-72
2023/05/16 15:17:53;;;;;;;5.57;1.40;;;15.90;93.30;;;;;;4939185;29;20110;-72
2023/05/16 15:20:19;;;;;;;9.30;1.50;;;15.90;93.60;;;;;;4931869;29;20040;-72
2023/05/16 15:22:46;;;;;;;4.93;1.25;;;15.70;93.70;;;;;;4934778;29;20032;-73
2023/05/16 15:25:12;;;;;;;6.88;1.95;;;15.70;94.00;;;;;;4920377;29;20478;-72
2023/05/16 15:27:37;;;;;;;8.07;1.33;;;15.80;93.60;;;;;;4919030;29;20092;-73
2023/05/16 15:30:03;;;;;;;4.43;1.40;;;15.80;93.70;;;;;;4920640;29;20032;-72
2023/05/16 15:32:29;;;;;;;9.57;1.42;;;15.90;93.60;;;;;;4920293;29;20275;-73
2023/05/16 15:34:54;;;;;;;4.47;1.25;;;16.00;93.50;;;;;;4932477;29;20028;-74
2023/05/16 15:37:20;;;;;;;6.27;1.73;;;16.20;93.30;;;;;;4937721;29;20111;-73
2023/05/16 15:39:46;;;;;;;6.30;1.45;;;16.30;93.30;;;;;;4937750;29;20027;-73
2023/05/16 15:42:11;;;;;;;7.35;1.67;;;16.20;93.60;;;;;;4938966;29;20032;-71
2023/05/16 15:44:38;;;;;;;7.73;2.30;;;16.30;93.50;;;;;;4939394;29;20107;-72
2023/05/16 15:47:03;;;;;;;;;;;16.30;93.70;;;;;;4938341;29;20796;-71
2023/05/16 15:49:29;;;;;;;10.40;1.92;;;16.30;93.50;;;;;;4938881;29;19914;-71
2023/05/16 15:51:55;;;;;;;6.97;1.33;;;16.40;93.70;;;;;;4934482;29;20027;-74
2023/05/16 15:54:20;;;;;;;5.43;1.57;;;16.40;93.30;;;;;;4937584;29;20032;-74
2023/05/16 15:56:46;;;;;;;6.13;1.50;;;16.60;93.10;;;;;;4934624;29;20288;-74
2023/05/16 15:59:12;;;;;;;8.07;1.73;;;16.60;93.00;;;;;;4930085;29;20485;-73
2023/05/16 16:01:38;;;;;;;9.68;1.88;;;16.60;93.10;;;;;;4924236;29;20375;-73
2023/05/16 16:04:03;;;;;;;3.58;1.35;;;16.60;93.10;;;;;;4926937;29;20096;-73
2023/05/16 16:06:30;;;;;;;11.13;1.77;;;16.70;93.00;;;;;;4927729;29;20032;-68
2023/05/16 16:08:55;;;;;;;;;;;16.60;92.80;;;;;;4939077;29;20023;-75
2023/05/16 16:11:21;;;;;;;6.30;1.90;;;16.50;93.10;;;;;;4940259;29;20269;-76
2023/05/16 16:13:48;;;;;;;;;;;16.50;93.30;;;;;;4937340;29;21734;-75
2023/05/16 16:16:14;;;;;;;5.25;1.50;;;16.50;93.40;;;;;;4920141;29;19915;-76
2023/05/16 16:18:40;;;;;;;5.53;1.50;;;16.50;93.10;;;;;;4920686;29;20028;-75
2023/05/16 16:21:06;;;;;;;7.28;1.70;;;16.30;93.30;;;;;;4918478;29;20076;-75
2023/05/16 16:23:32;;;;;;;8.65;2.20;;;16.30;93.10;;;;;;4920831;29;20068;-75
2023/05/16 16:25:57;;;;;;;7.55;1.85;;;16.10;93.40;;;;;;4938091;29;20361;-76
2023/05/16 16:28:23;;;;;;;5.25;1.20;;;16.20;94.10;;;;;;4937961;29;20032;-75
2023/05/16 16:30:49;;;;;;;3.58;1.08;;;16.20;93.60;;;;;;4932133;29;20036;-76
2023/05/16 16:33:15;;;;;;;8.38;1.60;;;16.40;91.80;;;;;;4939366;29;20031;-76
2023/05/16 16:35:41;;;;;;;;;;;16.50;91.60;;;;;;4937673;29;20032;-70
2023/05/16 16:38:07;;;;;;;4.70;1.00;;;16.60;91.20;;;;;;4938097;29;19957;-69
2023/05/16 16:40:33;;;;;;;2.85;1.02;;;16.70;90.90;;;;;;4938331;29;20024;-69
2023/05/16 16:43:00;;;;;;;6.55;1.23;;;16.80;90.30;;;;;;4938469;29;20442;-70